sensor_id;sensor_type;location;lat;lon;timestamp;P1;durP1;ratioP1;P2;durP2;ratioP2
72132;SDS011;60008;50.826;6.896;2024-01-15T00:01:29;6.70;;;3.05;;
72132;SDS011;60008;50.826;6.896;2024-01-15T00:04:14;14.43;;;4.77;;
72132;SDS011;60008;50.826;6.896;2024-01-15T00:06:59;12.15;;;5.05;;
72132;SDS011;60008;50.826;6.896;2024-01-15T00:09:44;12.05;;;4.72;;
72132;SDS011;60008;50.826;6.896;2024-01-15T00:12:30;10.30;;;3.53;;
72132;SDS011;60008;50.826;6.896;2024-01-15T00:15:15;13.38;;;4.95;;
72132;SDS011;60008;50.826;6.896;2024-01-15T00:18:00;19.07;;;5.03;;
72132;SDS011;60008;50.826;6.896;2024-01-15T00:20:45;13.10;;;5.57;;
72132;SDS011;60008;50.826;6.896;2024-01-15T00:23:30;10.95;;;3.80;;
72132;SDS011;60008;50.826;6.896;2024-01-15T00:26:15;15.18;;;5.93;;
72132;SDS011;60008;50.826;6.896;2024-01-15T00:29:00;11.45;;;4.40;;
72132;SDS011;60008;50.826;6.896;2024-01-15T00:31:45;18.10;;;5.70;;
72132;SDS011;60008;50.826;6.896;2024-01-15T00:34:30;10.23;;;3.53;;
72132;SDS011;60008;50.826;6.896;2024-01-15T00:37:16;19.88;;;6.07;;
72132;SDS011;60008;50.826;6.896;2024-01-15T00:40:01;13.95;;;5.03;;
72132;SDS011;60008;50.826;6.896;2024-01-15T00:42:46;11.18;;;4.20;;
72132;SDS011;60008;50.826;6.896;2024-01-15T00:45:31;16.47;;;5.90;;
72132;SDS011;60008;50.826;6.896;2024-01-15T00:48:16;13.70;;;4.97;;
72132;SDS011;60008;50.826;6.896;2024-01-15T00:51:02;17.75;;;5.18;;
72132;SDS011;60008;50.826;6.896;2024-01-15T00:53:47;13.48;;;4.40;;
72132;SDS011;60008;50.826;6.896;2024-01-15T00:56:32;15.07;;;4.55;;
72132;SDS011;60008;50.826;6.896;2024-01-15T00:59:18;14.20;;;4.67;;
72132;SDS011;60008;50.826;6.896;2024-01-15T01:02:05;11.23;;;3.60;;
72132;SDS011;60008;50.826;6.896;2024-01-15T01:04:50;17.02;;;5.60;;
72132;SDS011;60008;50.826;6.896;2024-01-15T01:07:35;18.77;;;4.90;;
72132;SDS011;60008;50.826;6.896;2024-01-15T01:10:20;17.02;;;5.72;;
72132;SDS011;60008;50.826;6.896;2024-01-15T01:13:05;14.63;;;5.70;;
72132;SDS011;60008;50.826;6.896;2024-01-15T01:15:50;13.90;;;5.10;;
72132;SDS011;60008;50.826;6.896;2024-01-15T01:18:35;14.35;;;5.15;;
72132;SDS011;60008;50.826;6.896;2024-01-15T01:21:21;14.40;;;5.88;;
72132;SDS011;60008;50.826;6.896;2024-01-15T01:24:07;19.13;;;5.93;;
72132;SDS011;60008;50.826;6.896;2024-01-15T01:26:52;13.73;;;5.27;;
72132;SDS011;60008;50.826;6.896;2024-01-15T01:29:37;22.88;;;5.93;;
72132;SDS011;60008;50.826;6.896;2024-01-15T01:32:22;10.05;;;3.42;;
72132;SDS011;60008;50.826;6.896;2024-01-15T01:35:07;17.88;;;6.28;;
72132;SDS011;60008;50.826;6.896;2024-01-15T01:37:52;16.27;;;5.15;;
72132;SDS011;60008;50.826;6.896;2024-01-15T01:40:37;21.67;;;6.23;;
72132;SDS011;60008;50.826;6.896;2024-01-15T01:43:22;17.40;;;5.60;;
72132;SDS011;60008;50.826;6.896;2024-01-15T01:46:07;14.45;;;5.60;;
72132;SDS011;60008;50.826;6.896;2024-01-15T01:48:53;16.25;;;6.30;;
72132;SDS011;60008;50.826;6.896;2024-01-15T01:51:40;14.88;;;4.93;;
72132;SDS011;60008;50.826;6.896;2024-01-15T01:54:25;21.23;;;6.13;;
72132;SDS011;60008;50.826;6.896;2024-01-15T01:57:11;18.02;;;6.28;;
72132;SDS011;60008;50.826;6.896;2024-01-15T01:59:57;15.23;;;4.55;;
72132;SDS011;60008;50.826;6.896;2024-01-15T02:02:43;12.60;;;4.20;;
72132;SDS011;60008;50.826;6.896;2024-01-15T02:05:28;14.48;;;5.20;;
72132;SDS011;60008;50.826;6.896;2024-01-15T02:08:13;19.80;;;6.27;;
72132;SDS011;60008;50.826;6.896;2024-01-15T02:10:58;15.93;;;5.78;;
72132;SDS011;60008;50.826;6.896;2024-01-15T02:13:43;20.98;;;6.65;;
72132;SDS011;60008;50.826;6.896;2024-01-15T02:16:29;16.75;;;5.68;;
72132;SDS011;60008;50.826;6.896;2024-01-15T02:19:17;24.77;;;7.30;;
72132;SDS011;60008;50.826;6.896;2024-01-15T02:22:02;13.03;;;4.73;;
72132;SDS011;60008;50.826;6.896;2024-01-15T02:24:48;19.17;;;5.78;;
72132;SDS011;60008;50.826;6.896;2024-01-15T02:27:33;21.50;;;6.80;;
72132;SDS011;60008;50.826;6.896;2024-01-15T02:30:18;12.63;;;4.18;;
72132;SDS011;60008;50.826;6.896;2024-01-15T02:33:03;18.42;;;5.90;;
72132;SDS011;60008;50.826;6.896;2024-01-15T02:35:49;19.43;;;6.27;;
72132;SDS011;60008;50.826;6.896;2024-01-15T02:38:36;15.82;;;6.07;;
72132;SDS011;60008;50.826;6.896;2024-01-15T02:41:22;5.75;;;2.65;;
72132;SDS011;60008;50.826;6.896;2024-01-15T02:44:06;18.77;;;6.28;;
72132;SDS011;60008;50.826;6.896;2024-01-15T02:46:51;16.00;;;5.57;;
72132;SDS011;60008;50.826;6.896;2024-01-15T02:49:36;16.43;;;6.90;;
72132;SDS011;60008;50.826;6.896;2024-01-15T02:52:21;21.58;;;6.07;;
72132;SDS011;60008;50.826;6.896;2024-01-15T02:55:06;18.05;;;5.07;;
72132;SDS011;60008;50.826;6.896;2024-01-15T02:57:52;11.23;;;4.25;;
72132;SDS011;60008;50.826;6.896;2024-01-15T03:00:37;10.75;;;3.78;;
72132;SDS011;60008;50.826;6.896;2024-01-15T03:03:22;10.73;;;4.67;;
72132;SDS011;60008;50.826;6.896;2024-01-15T03:06:07;20.92;;;6.50;;
72132;SDS011;60008;50.826;6.896;2024-01-15T03:08:52;21.55;;;6.65;;
72132;SDS011;60008;50.826;6.896;2024-01-15T03:11:38;9.00;;;3.67;;
72132;SDS011;60008;50.826;6.896;2024-01-15T03:14:24;13.27;;;4.57;;
72132;SDS011;60008;50.826;6.896;2024-01-15T03:17:11;17.17;;;7.00;;
72132;SDS011;60008;50.826;6.896;2024-01-15T03:19:57;17.75;;;5.45;;
72132;SDS011;60008;50.826;6.896;2024-01-15T03:22:42;15.43;;;6.05;;
72132;SDS011;60008;50.826;6.896;2024-01-15T03:25:27;13.32;;;4.93;;
72132;SDS011;60008;50.826;6.896;2024-01-15T03:28:12;16.27;;;5.43;;
72132;SDS011;60008;50.826;6.896;2024-01-15T03:30:57;15.03;;;5.30;;
72132;SDS011;60008;50.826;6.896;2024-01-15T03:33:42;18.52;;;6.63;;
72132;SDS011;60008;50.826;6.896;2024-01-15T03:36:28;16.10;;;6.45;;
72132;SDS011;60008;50.826;6.896;2024-01-15T03:39:13;18.38;;;5.95;;
72132;SDS011;60008;50.826;6.896;2024-01-15T03:41:58;11.90;;;5.03;;
72132;SDS011;60008;50.826;6.896;2024-01-15T03:44:43;11.20;;;4.67;;
72132;SDS011;60008;50.826;6.896;2024-01-15T03:47:28;15.85;;;5.22;;
72132;SDS011;60008;50.826;6.896;2024-01-15T03:50:13;16.83;;;5.53;;
72132;SDS011;60008;50.826;6.896;2024-01-15T03:52:59;16.75;;;6.70;;
72132;SDS011;60008;50.826;6.896;2024-01-15T03:55:43;19.02;;;6.82;;
72132;SDS011;60008;50.826;6.896;2024-01-15T03:58:28;5.93;;;2.17;;
72132;SDS011;60008;50.826;6.896;2024-01-15T04:01:13;17.63;;;6.28;;
72132;SDS011;60008;50.826;6.896;2024-01-15T04:03:59;18.23;;;6.70;;
72132;SDS011;60008;50.826;6.896;2024-01-15T04:06:44;18.38;;;6.72;;
72132;SDS011;60008;50.826;6.896;2024-01-15T04:09:29;13.75;;;4.85;;
72132;SDS011;60008;50.826;6.896;2024-01-15T04:12:14;15.47;;;5.73;;
72132;SDS011;60008;50.826;6.896;2024-01-15T04:14:59;14.57;;;5.80;;
72132;SDS011;60008;50.826;6.896;2024-01-15T04:17:43;11.43;;;4.03;;
72132;SDS011;60008;50.826;6.896;2024-01-15T04:20:29;13.60;;;5.43;;
72132;SDS011;60008;50.826;6.896;2024-01-15T04:23:14;16.40;;;5.05;;
72132;SDS011;60008;50.826;6.896;2024-01-15T04:25:59;16.73;;;6.43;;
72132;SDS011;60008;50.826;6.896;2024-01-15T04:28:44;13.40;;;5.10;;
72132;SDS011;60008;50.826;6.896;2024-01-15T04:31:29;16.92;;;6.20;;
72132;SDS011;60008;50.826;6.896;2024-01-15T04:34:14;13.80;;;5.97;;
72132;SDS011;60008;50.826;6.896;2024-01-15T04:36:59;17.55;;;6.43;;
72132;SDS011;60008;50.826;6.896;2024-01-15T04:39:44;14.27;;;5.40;;
72132;SDS011;60008;50.826;6.896;2024-01-15T04:42:30;19.70;;;6.57;;
72132;SDS011;60008;50.826;6.896;2024-01-15T04:45:15;15.90;;;4.85;;
72132;SDS011;60008;50.826;6.896;2024-01-15T04:48:00;15.50;;;5.80;;
72132;SDS011;60008;50.826;6.896;2024-01-15T04:50:45;15.55;;;5.75;;
72132;SDS011;60008;50.826;6.896;2024-01-15T04:53:31;17.87;;;5.63;;
72132;SDS011;60008;50.826;6.896;2024-01-15T04:56:16;12.90;;;4.85;;
72132;SDS011;60008;50.826;6.896;2024-01-15T04:59:01;15.82;;;5.95;;
72132;SDS011;60008;50.826;6.896;2024-01-15T05:01:46;10.57;;;3.22;;
72132;SDS011;60008;50.826;6.896;2024-01-15T05:04:33;13.25;;;5.32;;
72132;SDS011;60008;50.826;6.896;2024-01-15T05:07:19;13.20;;;5.80;;
72132;SDS011;60008;50.826;6.896;2024-01-15T05:10:04;14.25;;;5.60;;
72132;SDS011;60008;50.826;6.896;2024-01-15T05:12:49;12.35;;;5.10;;
72132;SDS011;60008;50.826;6.896;2024-01-15T05:15:34;16.23;;;5.45;;
72132;SDS011;60008;50.826;6.896;2024-01-15T05:18:19;9.85;;;3.78;;
72132;SDS011;60008;50.826;6.896;2024-01-15T05:21:05;13.67;;;5.30;;
72132;SDS011;60008;50.826;6.896;2024-01-15T05:23:50;15.60;;;6.00;;
72132;SDS011;60008;50.826;6.896;2024-01-15T05:26:35;4.47;;;1.98;;
72132;SDS011;60008;50.826;6.896;2024-01-15T05:29:20;7.88;;;3.13;;
72132;SDS011;60008;50.826;6.896;2024-01-15T05:32:06;13.38;;;4.80;;
72132;SDS011;60008;50.826;6.896;2024-01-15T05:34:51;13.17;;;4.93;;
72132;SDS011;60008;50.826;6.896;2024-01-15T05:37:36;13.10;;;4.95;;
72132;SDS011;60008;50.826;6.896;2024-01-15T05:40:21;9.27;;;4.30;;
72132;SDS011;60008;50.826;6.896;2024-01-15T05:43:06;16.80;;;6.40;;
72132;SDS011;60008;50.826;6.896;2024-01-15T05:45:51;13.73;;;5.25;;
72132;SDS011;60008;50.826;6.896;2024-01-15T05:48:36;8.00;;;3.37;;
72132;SDS011;60008;50.826;6.896;2024-01-15T05:51:21;18.08;;;5.70;;
72132;SDS011;60008;50.826;6.896;2024-01-15T05:54:06;13.25;;;5.57;;
72132;SDS011;60008;50.826;6.896;2024-01-15T05:56:51;12.60;;;4.88;;
72132;SDS011;60008;50.826;6.896;2024-01-15T05:59:36;15.13;;;6.35;;
72132;SDS011;60008;50.826;6.896;2024-01-15T06:02:21;12.37;;;5.40;;
72132;SDS011;60008;50.826;6.896;2024-01-15T06:05:06;8.05;;;3.83;;
72132;SDS011;60008;50.826;6.896;2024-01-15T06:07:52;10.93;;;3.95;;
72132;SDS011;60008;50.826;6.896;2024-01-15T06:10:37;11.75;;;5.35;;
72132;SDS011;60008;50.826;6.896;2024-01-15T06:13:22;12.73;;;5.20;;
72132;SDS011;60008;50.826;6.896;2024-01-15T06:16:14;16.73;;;6.00;;
72132;SDS011;60008;50.826;6.896;2024-01-15T06:19:00;15.20;;;5.63;;
72132;SDS011;60008;50.826;6.896;2024-01-15T06:21:45;11.57;;;5.13;;
72132;SDS011;60008;50.826;6.896;2024-01-15T06:24:30;12.98;;;4.97;;
72132;SDS011;60008;50.826;6.896;2024-01-15T06:27:16;6.82;;;2.80;;
72132;SDS011;60008;50.826;6.896;2024-01-15T06:30:01;14.63;;;5.77;;
72132;SDS011;60008;50.826;6.896;2024-01-15T06:32:47;16.88;;;6.05;;
72132;SDS011;60008;50.826;6.896;2024-01-15T06:35:32;16.27;;;6.18;;
72132;SDS011;60008;50.826;6.896;2024-01-15T06:38:19;16.65;;;6.72;;
72132;SDS011;60008;50.826;6.896;2024-01-15T06:41:04;10.55;;;4.45;;
72132;SDS011;60008;50.826;6.896;2024-01-15T06:43:49;5.77;;;2.80;;
72132;SDS011;60008;50.826;6.896;2024-01-15T06:46:34;13.05;;;6.00;;
72132;SDS011;60008;50.826;6.896;2024-01-15T06:49:19;13.93;;;6.38;;
72132;SDS011;60008;50.826;6.896;2024-01-15T06:52:04;15.80;;;6.22;;
72132;SDS011;60008;50.826;6.896;2024-01-15T06:54:50;14.60;;;5.35;;
72132;SDS011;60008;50.826;6.896;2024-01-15T06:57:35;13.63;;;6.13;;
72132;SDS011;60008;50.826;6.896;2024-01-15T07:00:20;13.90;;;5.03;;
72132;SDS011;60008;50.826;6.896;2024-01-15T07:03:05;14.50;;;5.50;;
72132;SDS011;60008;50.826;6.896;2024-01-15T07:05:50;10.68;;;5.05;;
72132;SDS011;60008;50.826;6.896;2024-01-15T07:08:35;16.67;;;6.30;;
72132;SDS011;60008;50.826;6.896;2024-01-15T07:11:20;8.20;;;3.43;;
72132;SDS011;60008;50.826;6.896;2024-01-15T07:14:05;14.00;;;5.70;;
72132;SDS011;60008;50.826;6.896;2024-01-15T07:16:50;12.00;;;5.28;;
72132;SDS011;60008;50.826;6.896;2024-01-15T07:19:35;15.75;;;6.13;;
72132;SDS011;60008;50.826;6.896;2024-01-15T07:22:20;13.05;;;5.45;;
72132;SDS011;60008;50.826;6.896;2024-01-15T07:25:06;14.20;;;6.00;;
72132;SDS011;60008;50.826;6.896;2024-01-15T07:27:51;13.73;;;5.57;;
72132;SDS011;60008;50.826;6.896;2024-01-15T07:30:38;12.55;;;4.90;;
72132;SDS011;60008;50.826;6.896;2024-01-15T07:33:24;14.35;;;4.95;;
72132;SDS011;60008;50.826;6.896;2024-01-15T07:36:09;15.75;;;5.30;;
72132;SDS011;60008;50.826;6.896;2024-01-15T07:38:54;21.87;;;5.27;;
72132;SDS011;60008;50.826;6.896;2024-01-15T07:41:39;13.05;;;5.13;;
72132;SDS011;60008;50.826;6.896;2024-01-15T07:44:24;14.02;;;4.90;;
72132;SDS011;60008;50.826;6.896;2024-01-15T07:47:09;10.10;;;2.70;;
72132;SDS011;60008;50.826;6.896;2024-01-15T07:49:54;14.65;;;5.47;;
72132;SDS011;60008;50.826;6.896;2024-01-15T07:52:40;17.27;;;5.37;;
72132;SDS011;60008;50.826;6.896;2024-01-15T07:55:28;18.50;;;5.82;;
72132;SDS011;60008;50.826;6.896;2024-01-15T07:58:13;14.38;;;4.55;;
72132;SDS011;60008;50.826;6.896;2024-01-15T08:01:01;12.93;;;5.18;;
72132;SDS011;60008;50.826;6.896;2024-01-15T08:03:46;17.35;;;6.10;;
72132;SDS011;60008;50.826;6.896;2024-01-15T08:06:32;13.50;;;4.20;;
72132;SDS011;60008;50.826;6.896;2024-01-15T08:09:17;12.90;;;3.80;;
72132;SDS011;60008;50.826;6.896;2024-01-15T08:12:02;18.13;;;4.50;;
72132;SDS011;60008;50.826;6.896;2024-01-15T08:14:51;17.30;;;5.80;;
72132;SDS011;60008;50.826;6.896;2024-01-15T08:17:36;6.45;;;2.33;;
72132;SDS011;60008;50.826;6.896;2024-01-15T08:20:21;13.10;;;5.37;;
72132;SDS011;60008;50.826;6.896;2024-01-15T08:23:05;14.05;;;5.70;;
72132;SDS011;60008;50.826;6.896;2024-01-15T08:25:50;13.57;;;5.15;;
72132;SDS011;60008;50.826;6.896;2024-01-15T08:28:35;22.20;;;7.30;;
72132;SDS011;60008;50.826;6.896;2024-01-15T08:31:23;9.95;;;3.53;;
72132;SDS011;60008;50.826;6.896;2024-01-15T08:34:09;17.83;;;5.70;;
72132;SDS011;60008;50.826;6.896;2024-01-15T08:36:54;10.57;;;4.97;;
72132;SDS011;60008;50.826;6.896;2024-01-15T08:39:39;15.05;;;5.50;;
72132;SDS011;60008;50.826;6.896;2024-01-15T08:42:25;15.63;;;6.03;;
72132;SDS011;60008;50.826;6.896;2024-01-15T08:45:10;16.10;;;6.18;;
72132;SDS011;60008;50.826;6.896;2024-01-15T08:47:55;12.87;;;6.33;;
72132;SDS011;60008;50.826;6.896;2024-01-15T08:50:40;13.75;;;5.68;;
72132;SDS011;60008;50.826;6.896;2024-01-15T08:53:25;16.30;;;5.90;;
72132;SDS011;60008;50.826;6.896;2024-01-15T08:56:10;25.55;;;6.18;;
72132;SDS011;60008;50.826;6.896;2024-01-15T08:58:55;16.13;;;5.80;;
72132;SDS011;60008;50.826;6.896;2024-01-15T09:01:41;11.50;;;4.20;;
72132;SDS011;60008;50.826;6.896;2024-01-15T09:04:26;13.60;;;4.47;;
72132;SDS011;60008;50.826;6.896;2024-01-15T09:07:11;10.45;;;4.43;;
72132;SDS011;60008;50.826;6.896;2024-01-15T09:09:56;12.07;;;3.70;;
72132;SDS011;60008;50.826;6.896;2024-01-15T09:12:41;6.43;;;2.83;;
72132;SDS011;60008;50.826;6.896;2024-01-15T09:15:26;9.07;;;3.80;;
72132;SDS011;60008;50.826;6.896;2024-01-15T09:18:11;16.77;;;5.35;;
72132;SDS011;60008;50.826;6.896;2024-01-15T09:20:57;8.13;;;3.60;;
72132;SDS011;60008;50.826;6.896;2024-01-15T09:23:42;10.95;;;4.05;;
72132;SDS011;60008;50.826;6.896;2024-01-15T09:26:28;9.55;;;3.88;;
72132;SDS011;60008;50.826;6.896;2024-01-15T09:29:13;11.10;;;5.17;;
72132;SDS011;60008;50.826;6.896;2024-01-15T09:32:03;13.68;;;4.40;;
72132;SDS011;60008;50.826;6.896;2024-01-15T09:34:49;8.73;;;3.90;;
72132;SDS011;60008;50.826;6.896;2024-01-15T09:37:34;8.13;;;3.53;;
72132;SDS011;60008;50.826;6.896;2024-01-15T09:40:31;9.50;;;3.60;;
72132;SDS011;60008;50.826;6.896;2024-01-15T09:43:19;8.97;;;3.63;;
72132;SDS011;60008;50.826;6.896;2024-01-15T09:46:04;6.95;;;2.15;;
72132;SDS011;60008;50.826;6.896;2024-01-15T09:48:50;6.43;;;2.72;;
72132;SDS011;60008;50.826;6.896;2024-01-15T09:51:35;5.45;;;2.20;;
72132;SDS011;60008;50.826;6.896;2024-01-15T09:54:21;5.22;;;2.20;;
72132;SDS011;60008;50.826;6.896;2024-01-15T09:57:06;5.97;;;2.57;;
72132;SDS011;60008;50.826;6.896;2024-01-15T09:59:52;6.03;;;2.38;;
72132;SDS011;60008;50.826;6.896;2024-01-15T10:02:39;3.67;;;1.80;;
72132;SDS011;60008;50.826;6.896;2024-01-15T10:05:26;4.60;;;2.15;;
72132;SDS011;60008;50.826;6.896;2024-01-15T10:08:11;7.53;;;3.15;;
72132;SDS011;60008;50.826;6.896;2024-01-15T10:10:57;7.60;;;3.00;;
72132;SDS011;60008;50.826;6.896;2024-01-15T10:13:45;13.98;;;1.75;;
72132;SDS011;60008;50.826;6.896;2024-01-15T10:16:34;5.72;;;2.33;;
72132;SDS011;60008;50.826;6.896;2024-01-15T10:19:19;5.80;;;2.58;;
72132;SDS011;60008;50.826;6.896;2024-01-15T10:22:04;6.60;;;3.22;;
72132;SDS011;60008;50.826;6.896;2024-01-15T10:24:49;5.77;;;2.73;;
72132;SDS011;60008;50.826;6.896;2024-01-15T10:27:34;7.75;;;3.40;;
72132;SDS011;60008;50.826;6.896;2024-01-15T10:30:19;3.08;;;1.58;;
72132;SDS011;60008;50.826;6.896;2024-01-15T10:33:04;7.20;;;3.25;;
72132;SDS011;60008;50.826;6.896;2024-01-15T10:35:51;9.00;;;2.58;;
72132;SDS011;60008;50.826;6.896;2024-01-15T10:38:38;9.30;;;3.57;;
72132;SDS011;60008;50.826;6.896;2024-01-15T10:41:23;5.30;;;2.67;;
72132;SDS011;60008;50.826;6.896;2024-01-15T10:44:08;5.70;;;2.88;;
72132;SDS011;60008;50.826;6.896;2024-01-15T10:46:54;5.00;;;2.45;;
72132;SDS011;60008;50.826;6.896;2024-01-15T10:49:40;4.75;;;1.92;;
72132;SDS011;60008;50.826;6.896;2024-01-15T10:52:27;3.53;;;1.73;;
72132;SDS011;60008;50.826;6.896;2024-01-15T10:55:13;5.78;;;2.58;;
72132;SDS011;60008;50.826;6.896;2024-01-15T10:58:03;7.72;;;2.75;;
72132;SDS011;60008;50.826;6.896;2024-01-15T11:00:49;6.38;;;2.15;;
72132;SDS011;60008;50.826;6.896;2024-01-15T11:03:35;5.28;;;2.97;;
72132;SDS011;60008;50.826;6.896;2024-01-15T11:06:22;6.03;;;2.70;;
72132;SDS011;60008;50.826;6.896;2024-01-15T11:09:09;6.05;;;2.50;;
72132;SDS011;60008;50.826;6.896;2024-01-15T11:12:07;6.80;;;3.45;;
72132;SDS011;60008;50.826;6.896;2024-01-15T11:15:00;5.70;;;2.90;;
72132;SDS011;60008;50.826;6.896;2024-01-15T11:17:58;4.40;;;2.30;;
72132;SDS011;60008;50.826;6.896;2024-01-15T11:24:02;6.03;;;3.28;;
72132;SDS011;60008;50.826;6.896;2024-01-15T11:26:47;7.57;;;3.85;;
72132;SDS011;60008;50.826;6.896;2024-01-15T11:29:36;7.82;;;3.80;;
72132;SDS011;60008;50.826;6.896;2024-01-15T11:32:23;8.52;;;3.65;;
72132;SDS011;60008;50.826;6.896;2024-01-15T11:35:18;6.97;;;3.53;;
72132;SDS011;60008;50.826;6.896;2024-01-15T11:38:04;8.15;;;3.60;;
72132;SDS011;60008;50.826;6.896;2024-01-15T11:40:50;9.20;;;4.13;;
72132;SDS011;60008;50.826;6.896;2024-01-15T11:43:35;10.23;;;3.95;;
72132;SDS011;60008;50.826;6.896;2024-01-15T11:46:20;9.77;;;4.28;;
72132;SDS011;60008;50.826;6.896;2024-01-15T11:49:06;3.93;;;2.00;;
72132;SDS011;60008;50.826;6.896;2024-01-15T11:51:52;7.80;;;3.65;;
72132;SDS011;60008;50.826;6.896;2024-01-15T11:54:38;11.63;;;3.78;;
72132;SDS011;60008;50.826;6.896;2024-01-15T12:00:28;10.48;;;3.65;;
72132;SDS011;60008;50.826;6.896;2024-01-15T12:03:13;8.17;;;3.50;;
72132;SDS011;60008;50.826;6.896;2024-01-15T12:05:58;18.33;;;4.53;;
72132;SDS011;60008;50.826;6.896;2024-01-15T12:08:44;7.60;;;3.90;;
72132;SDS011;60008;50.826;6.896;2024-01-15T12:11:29;10.00;;;3.53;;
72132;SDS011;60008;50.826;6.896;2024-01-15T12:14:15;9.40;;;3.33;;
72132;SDS011;60008;50.826;6.896;2024-01-15T12:17:01;9.70;;;3.43;;
72132;SDS011;60008;50.826;6.896;2024-01-15T12:19:49;10.25;;;3.80;;
72132;SDS011;60008;50.826;6.896;2024-01-15T12:22:34;10.05;;;2.83;;
72132;SDS011;60008;50.826;6.896;2024-01-15T12:25:39;7.75;;;2.70;;
72132;SDS011;60008;50.826;6.896;2024-01-15T12:28:27;8.60;;;2.20;;
72132;SDS011;60008;50.826;6.896;2024-01-15T12:31:12;12.50;;;3.20;;
72132;SDS011;60008;50.826;6.896;2024-01-15T12:33:57;10.02;;;4.15;;
72132;SDS011;60008;50.826;6.896;2024-01-15T12:36:43;6.80;;;2.40;;
72132;SDS011;60008;50.826;6.896;2024-01-15T12:39:28;10.50;;;2.60;;
72132;SDS011;60008;50.826;6.896;2024-01-15T12:42:16;11.95;;;3.00;;
72132;SDS011;60008;50.826;6.896;2024-01-15T12:45:02;12.03;;;3.30;;
72132;SDS011;60008;50.826;6.896;2024-01-15T12:47:48;4.88;;;1.92;;
72132;SDS011;60008;50.826;6.896;2024-01-15T12:50:35;6.50;;;2.25;;
72132;SDS011;60008;50.826;6.896;2024-01-15T12:53:20;7.65;;;2.08;;
72132;SDS011;60008;50.826;6.896;2024-01-15T12:56:06;8.57;;;3.00;;
72132;SDS011;60008;50.826;6.896;2024-01-15T12:58:51;7.57;;;2.33;;
72132;SDS011;60008;50.826;6.896;2024-01-15T13:01:36;10.55;;;2.40;;
72132;SDS011;60008;50.826;6.896;2024-01-15T13:04:22;5.40;;;1.98;;
72132;SDS011;60008;50.826;6.896;2024-01-15T13:07:10;6.90;;;2.97;;
72132;SDS011;60008;50.826;6.896;2024-01-15T13:09:55;5.07;;;2.42;;
72132;SDS011;60008;50.826;6.896;2024-01-15T13:12:41;6.10;;;2.57;;
72132;SDS011;60008;50.826;6.896;2024-01-15T13:15:27;5.45;;;2.03;;
72132;SDS011;60008;50.826;6.896;2024-01-15T13:18:12;4.38;;;2.03;;
72132;SDS011;60008;50.826;6.896;2024-01-15T13:20:57;8.55;;;1.67;;
72132;SDS011;60008;50.826;6.896;2024-01-15T13:23:42;4.75;;;1.45;;
72132;SDS011;60008;50.826;6.896;2024-01-15T13:26:27;4.50;;;1.93;;
72132;SDS011;60008;50.826;6.896;2024-01-15T13:29:12;4.88;;;1.73;;
72132;SDS011;60008;50.826;6.896;2024-01-15T13:31:58;5.90;;;2.47;;
72132;SDS011;60008;50.826;6.896;2024-01-15T13:34:44;5.72;;;2.03;;
72132;SDS011;60008;50.826;6.896;2024-01-15T13:37:29;3.17;;;1.15;;
72132;SDS011;60008;50.826;6.896;2024-01-15T13:40:14;5.60;;;1.23;;
72132;SDS011;60008;50.826;6.896;2024-01-15T13:43:04;5.68;;;1.65;;
72132;SDS011;60008;50.826;6.896;2024-01-15T13:45:52;8.35;;;1.55;;
72132;SDS011;60008;50.826;6.896;2024-01-15T13:48:39;5.25;;;1.45;;
72132;SDS011;60008;50.826;6.896;2024-01-15T13:51:24;7.05;;;1.98;;
72132;SDS011;60008;50.826;6.896;2024-01-15T13:54:09;3.50;;;1.97;;
72132;SDS011;60008;50.826;6.896;2024-01-15T13:56:54;6.78;;;1.95;;
72132;SDS011;60008;50.826;6.896;2024-01-15T13:59:39;4.85;;;2.20;;
72132;SDS011;60008;50.826;6.896;2024-01-15T14:02:24;3.22;;;1.42;;
72132;SDS011;60008;50.826;6.896;2024-01-15T14:05:11;7.53;;;2.05;;
72132;SDS011;60008;50.826;6.896;2024-01-15T14:07:58;3.90;;;1.47;;
72132;SDS011;60008;50.826;6.896;2024-01-15T14:10:43;3.53;;;1.33;;
72132;SDS011;60008;50.826;6.896;2024-01-15T14:13:28;3.67;;;1.17;;
72132;SDS011;60008;50.826;6.896;2024-01-15T14:16:13;3.47;;;1.30;;
72132;SDS011;60008;50.826;6.896;2024-01-15T14:18:58;6.18;;;1.35;;
72132;SDS011;60008;50.826;6.896;2024-01-15T14:21:43;2.73;;;1.27;;
72132;SDS011;60008;50.826;6.896;2024-01-15T14:24:28;2.35;;;1.00;;
72132;SDS011;60008;50.826;6.896;2024-01-15T14:27:13;3.42;;;1.05;;
72132;SDS011;60008;50.826;6.896;2024-01-15T14:29:58;4.93;;;0.70;;
72132;SDS011;60008;50.826;6.896;2024-01-15T14:32:43;2.13;;;0.85;;
72132;SDS011;60008;50.826;6.896;2024-01-15T14:35:29;1.87;;;0.70;;
72132;SDS011;60008;50.826;6.896;2024-01-15T14:38:14;5.60;;;1.05;;
72132;SDS011;60008;50.826;6.896;2024-01-15T14:40:59;1.85;;;0.60;;
72132;SDS011;60008;50.826;6.896;2024-01-15T14:43:44;2.75;;;0.85;;
72132;SDS011;60008;50.826;6.896;2024-01-15T14:46:29;3.00;;;0.75;;
72132;SDS011;60008;50.826;6.896;2024-01-15T14:49:15;3.47;;;0.90;;
72132;SDS011;60008;50.826;6.896;2024-01-15T14:52:02;2.20;;;0.80;;
72132;SDS011;60008;50.826;6.896;2024-01-15T14:54:47;2.65;;;0.75;;
72132;SDS011;60008;50.826;6.896;2024-01-15T14:57:33;2.40;;;1.08;;
72132;SDS011;60008;50.826;6.896;2024-01-15T15:00:19;3.10;;;1.15;;
72132;SDS011;60008;50.826;6.896;2024-01-15T15:03:04;1.90;;;1.03;;
72132;SDS011;60008;50.826;6.896;2024-01-15T15:05:49;3.17;;;1.27;;
72132;SDS011;60008;50.826;6.896;2024-01-15T15:08:34;1.88;;;0.85;;
72132;SDS011;60008;50.826;6.896;2024-01-15T15:11:19;2.30;;;0.98;;
72132;SDS011;60008;50.826;6.896;2024-01-15T15:14:04;3.30;;;1.00;;
72132;SDS011;60008;50.826;6.896;2024-01-15T15:16:49;6.20;;;1.23;;
72132;SDS011;60008;50.826;6.896;2024-01-15T15:19:34;3.10;;;1.08;;
72132;SDS011;60008;50.826;6.896;2024-01-15T15:22:21;1.05;;;0.45;;
72132;SDS011;60008;50.826;6.896;2024-01-15T15:25:06;4.47;;;1.30;;
72132;SDS011;60008;50.826;6.896;2024-01-15T15:27:54;4.47;;;0.90;;
72132;SDS011;60008;50.826;6.896;2024-01-15T15:30:39;6.07;;;1.30;;
72132;SDS011;60008;50.826;6.896;2024-01-15T15:33:24;2.50;;;1.02;;
72132;SDS011;60008;50.826;6.896;2024-01-15T15:36:09;3.90;;;1.10;;
72132;SDS011;60008;50.826;6.896;2024-01-15T15:38:55;5.70;;;1.63;;
72132;SDS011;60008;50.826;6.896;2024-01-15T15:41:42;0.98;;;0.30;;
72132;SDS011;60008;50.826;6.896;2024-01-15T15:44:28;4.73;;;2.37;;
72132;SDS011;60008;50.826;6.896;2024-01-15T15:47:13;6.55;;;2.00;;
72132;SDS011;60008;50.826;6.896;2024-01-15T15:49:59;2.38;;;0.95;;
72132;SDS011;60008;50.826;6.896;2024-01-15T15:52:45;5.45;;;1.25;;
72132;SDS011;60008;50.826;6.896;2024-01-15T15:55:30;1.65;;;0.70;;
72132;SDS011;60008;50.826;6.896;2024-01-15T15:58:15;2.33;;;1.00;;
72132;SDS011;60008;50.826;6.896;2024-01-15T16:00:59;2.47;;;1.10;;
72132;SDS011;60008;50.826;6.896;2024-01-15T16:03:45;3.47;;;1.20;;
72132;SDS011;60008;50.826;6.896;2024-01-15T16:06:30;3.63;;;1.40;;
72132;SDS011;60008;50.826;6.896;2024-01-15T16:09:15;9.63;;;2.70;;
72132;SDS011;60008;50.826;6.896;2024-01-15T16:12:00;5.17;;;2.03;;
72132;SDS011;60008;50.826;6.896;2024-01-15T16:14:46;8.38;;;2.55;;
72132;SDS011;60008;50.826;6.896;2024-01-15T16:17:30;4.18;;;1.23;;
72132;SDS011;60008;50.826;6.896;2024-01-15T16:20:36;3.58;;;1.42;;
72132;SDS011;60008;50.826;6.896;2024-01-15T16:23:42;2.53;;;1.10;;
72132;SDS011;60008;50.826;6.896;2024-01-15T16:26:47;3.90;;;2.03;;
72132;SDS011;60008;50.826;6.896;2024-01-15T16:29:32;4.65;;;1.98;;
72132;SDS011;60008;50.826;6.896;2024-01-15T16:32:18;2.63;;;1.10;;
72132;SDS011;60008;50.826;6.896;2024-01-15T16:35:04;3.70;;;1.65;;
72132;SDS011;60008;50.826;6.896;2024-01-15T16:37:50;3.50;;;1.92;;